Time;durP1;ratioP1;P1;durP2;ratioP2;P2;SDS_P1;SDS_P2;PMS_P1;PMS_P2;Temp;Humidity;BMP_temperature;BMP_pressure;BME280_temperature;BME280_humidity;BME280_pressure;Samples;Min_cycle;Max_cycle;Signal;HPM_P1;HPM_P2
2022/09/24 00:01:19;;;;;;;28.67;18.05;;;;;;;-143.48;85.37;78371.13;5058830;28;20025;-77
2022/09/24 00:03:53;;;;;;;27.65;18.27;;;;;;;-143.48;85.86;78381.03;5058927;28;20020;-77
2022/09/24 00:06:19;;;;;;;28.63;18.75;;;;;;;-143.48;86.38;78390.94;5077732;28;20024;-77
2022/09/24 00:08:46;;;;;;;29.80;19.60;;;;;;;-143.48;86.56;78383.00;5076915;28;20028;-77
2022/09/24 00:11:12;;;;;;;28.08;18.75;;;;;;;-143.48;86.52;78375.09;5058573;28;20024;-78
2022/09/24 00:13:39;;;;;;;29.80;19.17;;;;;;;-143.48;86.87;78367.16;5076834;28;20349;-78
2022/09/24 00:16:08;;;;;;;32.28;19.98;;;;;;;-143.48;86.63;78375.09;5076621;28;20524;-77
2022/09/24 00:18:34;;;;;;;28.38;19.48;;;;;;;-143.48;86.59;78377.06;5057946;28;20031;-77
2022/09/24 00:20:59;;;;;;;26.33;18.15;;;;;;;-143.48;87.36;78381.03;5041692;28;20028;-77
2022/09/24 00:23:25;;;;;;;29.55;18.40;;;;;;;-143.48;86.62;78388.97;5076607;28;20063;-76
2022/09/24 00:28:35;;;;;;;29.50;18.17;;;;;;;-143.48;86.49;78377.06;5076460;28;20082;-76
2022/09/24 00:31:06;;;;;;;25.35;17.63;;;;;;;-143.48;86.45;78369.13;5076465;28;20024;-76
2022/09/24 00:33:33;;;;;;;27.60;17.10;;;;;;;-143.48;86.42;78371.13;5058617;28;20119;-77
2022/09/24 00:36:03;;;;;;;28.23;17.80;;;;;;;-143.48;86.59;78377.06;5076304;28;20047;-77
2022/09/24 00:38:31;;;;;;;25.85;17.80;;;;;;;-143.48;86.46;78371.13;5058371;28;20059;-77
2022/09/24 00:40:58;;;;;;;29.10;18.15;;;;;;;-143.48;86.25;78365.16;5076515;28;20024;-76
2022/09/24 00:43:30;;;;;;;27.95;18.15;;;;;;;-143.48;86.37;78369.13;5076321;28;20071;-76
2022/09/24 00:46:15;;;;;;;26.90;18.08;;;;;;;-143.48;86.58;78369.13;5076334;28;20028;-77
2022/09/24 00:48:42;;;;;;;28.95;19.25;;;;;;;-143.48;86.87;78359.22;5058246;28;20040;-77
2022/09/24 00:51:12;;;;;;;29.00;19.70;;;;;;;-143.48;86.43;78371.13;5075878;28;20028;-77
2022/09/24 00:53:39;;;;;;;35.17;20.63;;;;;;;-143.48;87.51;78375.09;5058712;28;20024;-76
2022/09/24 00:56:08;;;;;;;31.52;20.02;;;;;;;-143.48;87.57;78392.94;5076134;28;20025;-76
2022/09/24 00:58:33;;;;;;;31.58;20.75;;;;;;;-143.48;88.61;78388.97;5058389;28;20064;-77
2022/09/24 01:01:06;;;;;;;27.10;18.67;;;;;;;-143.48;88.62;78377.06;5041456;28;20032;-77
2022/09/24 01:03:34;;;;;;;;;;;;;;;-143.48;88.25;78363.19;5058607;28;20041;-78
2022/09/24 01:06:00;;;;;;;23.88;15.73;;;;;;;-143.48;87.59;78377.06;5058293;28;19950;-77
2022/09/24 01:08:27;;;;;;;24.45;15.27;;;;;;;-143.48;87.57;78375.09;5057700;28;20460;-76
2022/09/24 01:11:26;;;;;;;24.60;15.75;;;;;;;-143.48;87.44;78367.16;5075667;28;20509;-76
2022/09/24 01:14:25;;;;;;;21.00;14.25;;;;;;;-143.48;87.22;78361.19;5057659;28;20457;-76
2022/09/24 01:17:32;;;;;;;21.55;14.75;;;;;;;-143.48;87.55;78351.28;5075472;28;20025;-77
2022/09/24 01:20:27;;;;;;;24.23;16.75;;;;;;;-143.48;87.37;78357.22;5036130;28;20036;-76
2022/09/24 01:23:17;;;;;;;26.08;17.58;;;;;;;-143.48;87.49;78369.13;5075592;28;20021;-77
2022/09/24 01:26:00;;;;;;;24.98;17.05;;;;;;;-143.48;87.35;78373.09;5075437;28;20084;-77
2022/09/24 01:28:51;;;;;;;27.83;17.63;;;;;;;-143.48;87.40;78373.09;5075435;28;20032;-76
2022/09/24 01:31:24;;;;;;;27.40;17.27;;;;;;;-143.48;88.13;78371.13;5075360;28;20062;-77
2022/09/24 01:33:53;;;;;;;27.33;17.70;;;;;;;-143.48;87.83;78367.16;5057505;28;20070;-77
2022/09/24 01:36:20;;;;;;;25.73;17.23;;;;;;;-143.48;87.87;78369.13;5056604;28;20028;-77
2022/09/24 01:38:48;;;;;;;26.42;17.67;;;;;;;-143.48;88.33;78379.06;5076278;28;20103;-77
2022/09/24 01:41:16;;;;;;;26.55;17.00;;;;;;;-143.48;88.37;78371.13;5040719;28;20032;-77
2022/09/24 01:43:43;;;;;;;25.17;16.40;;;;;;;-143.48;88.33;78381.03;5057248;28;20482;-76
2022/09/24 01:46:11;;;;;;;25.40;17.13;;;;;;;-143.48;88.15;78367.16;5075115;28;20033;-77
2022/09/24 01:48:38;;;;;;;25.15;16.85;;;;;;;-143.48;87.61;78361.19;5053943;28;20136;-77
2022/09/24 01:51:22;;;;;;;25.85;16.40;;;;;;;-143.48;87.54;78379.06;5055111;28;20031;-77
2022/09/24 01:53:57;;;;;;;24.88;16.52;;;;;;;-143.48;87.70;78381.03;5053280;28;20079;-77
2022/09/24 01:56:28;;;;;;;25.20;16.70;;;;;;;-143.48;87.90;78373.09;5053589;28;20036;-76
2022/09/24 01:59:05;;;;;;;22.80;15.73;;;;;;;-143.48;88.12;78379.06;5053445;28;20024;-76
2022/09/24 02:01:42;;;;;;;24.58;16.08;;;;;;;-143.48;87.94;78373.09;5054732;28;20060;-77
2022/09/24 02:04:18;;;;;;;26.27;16.80;;;;;;;-143.48;87.99;78355.25;5053507;28;20027;-77
2022/09/24 02:06:54;;;;;;;27.45;17.17;;;;;;;-143.48;87.71;78363.19;5053128;28;20053;-77
2022/09/24 02:09:35;;;;;;;24.75;16.17;;;;;;;-143.48;87.63;78361.19;5053353;28;20021;-77
2022/09/24 02:12:11;;;;;;;24.83;16.23;;;;;;;-143.48;88.11;78369.13;5052991;28;20064;-76
2022/09/24 02:14:47;;;;;;;24.08;15.75;;;;;;;-143.48;87.96;78353.28;5054511;28;20100;-76
2022/09/24 02:17:15;;;;;;;24.73;16.63;;;;;;;-143.48;87.88;78375.09;5053317;28;20036;-77
2022/09/24 02:19:41;;;;;;;26.92;16.77;;;;;;;-143.48;88.08;78369.13;5053259;28;20029;-77
2022/09/24 02:22:11;;;;;;;27.45;17.48;;;;;;;-143.48;88.14;78365.16;5053264;28;20029;-77
2022/09/24 02:24:46;;;;;;;26.83;17.67;;;;;;;-143.48;88.27;78361.19;5054364;28;20032;-77
2022/09/24 02:27:12;;;;;;;30.05;18.58;;;;;;;-143.48;87.93;78365.16;5053658;28;20472;-77
2022/09/24 02:29:37;;;;;;;28.75;17.90;;;;;;;-143.48;88.28;78367.16;5054364;28;20033;-77
2022/09/24 02:32:07;;;;;;;30.10;18.75;;;;;;;-143.48;88.52;78369.13;5055043;28;20027;-77
2022/09/24 02:34:39;;;;;;;31.30;19.10;;;;;;;-143.48;88.75;78377.06;5052624;28;20028;-77
2022/09/24 02:37:10;;;;;;;31.63;18.73;;;;;;;-143.48;88.31;78377.06;5054241;28;20372;-78
2022/09/24 02:39:35;;;;;;;29.65;18.98;;;;;;;-143.48;88.57;78390.94;5053739;28;20025;-77
2022/09/24 02:42:04;;;;;;;31.33;18.92;;;;;;;-143.48;88.64;78375.09;5053261;28;20448;-77
2022/09/24 02:44:30;;;;;;;30.38;19.17;;;;;;;-143.48;88.85;78375.09;5052828;28;20021;-77
2022/09/24 02:46:56;;;;;;;33.97;19.42;;;;;;;-143.48;88.53;78381.03;5052875;28;20144;-76
2022/09/24 02:49:21;;;;;;;30.67;18.80;;;;;;;-143.48;88.79;78363.19;5052544;28;20060;-77
2022/09/24 02:51:46;;;;;;;32.10;19.08;;;;;;;-143.48;88.70;78377.06;5052603;28;20025;-77
2022/09/24 02:54:12;;;;;;;29.55;17.85;;;;;;;-143.48;88.82;78381.03;5052837;28;20021;-76
2022/09/24 02:56:38;;;;;;;32.42;18.75;;;;;;;-143.48;88.90;78381.03;5053359;28;20029;-78
2022/09/24 02:59:04;;;;;;;29.88;18.73;;;;;;;-143.48;89.07;78377.06;5052874;28;20364;-77
2022/09/24 03:01:30;;;;;;;33.15;19.13;;;;;;;-143.48;89.29;78375.09;5052874;28;20100;-77
2022/09/24 03:03:56;;;;;;;33.35;19.70;;;;;;;-143.48;89.03;78365.16;5053813;28;20040;-77
2022/09/24 03:06:22;;;;;;;31.85;19.02;;;;;;;-143.48;88.70;78373.09;5052460;28;20362;-77
2022/09/24 03:08:47;;;;;;;32.40;19.95;;;;;;;-143.48;88.53;78365.16;5052709;28;20104;-77
2022/09/24 03:11:12;;;;;;;32.78;19.13;;;;;;;-143.48;88.63;78363.19;5052715;28;20029;-77
2022/09/24 03:13:39;;;;;;;38.72;19.30;;;;;;;-143.48;88.38;78369.13;5054033;28;20028;-77
2022/09/24 03:16:06;;;;;;;31.20;19.63;;;;;;;-143.48;88.81;78392.94;5052789;28;20048;-78
2022/09/24 03:18:32;;;;;;;31.92;19.67;;;;;;;-143.48;88.91;78388.97;5052777;28;20032;-78
2022/09/24 03:21:05;;;;;;;33.45;20.20;;;;;;;-143.48;89.32;78381.03;5052998;28;20032;-77
2022/09/24 03:23:31;;;;;;;37.08;19.70;;;;;;;-143.48;89.16;78381.03;5052689;28;20045;-77
2022/09/24 03:25:57;;;;;;;31.80;20.00;;;;;;;-143.48;89.47;78377.06;5036317;28;20053;-77
2022/09/24 03:28:22;;;;;;;31.20;19.15;;;;;;;-143.48;89.19;78390.94;5053951;28;20455;-78
2022/09/24 03:31:00;;;;;;;32.75;19.90;;;;;;;-143.48;89.55;78388.97;5052194;28;20025;-77
2022/09/24 03:33:32;;;;;;;30.88;18.55;;;;;;;-143.48;89.17;78396.91;5052893;28;20076;-77
2022/09/24 03:36:00;;;;;;;31.92;18.35;;;;;;;-143.48;89.27;78375.09;5052577;28;20032;-77
2022/09/24 03:38:27;;;;;;;29.10;18.77;;;;;;;-143.48;89.38;78377.06;5052469;28;20067;-77
2022/09/24 03:40:52;;;;;;;29.02;18.38;;;;;;;-143.48;89.05;78404.84;5052513;28;20091;-78
2022/09/24 03:43:18;;;;;;;32.90;19.67;;;;;;;-143.48;89.67;78386.97;5053925;28;20114;-77
2022/09/24 03:45:44;;;;;;;30.88;19.40;;;;;;;-143.48;89.46;78383.00;5052470;28;20031;-77
2022/09/24 03:48:09;;;;;;;32.38;19.60;;;;;;;-143.48;89.36;78373.09;5069005;28;20058;-77
2022/09/24 03:50:35;;;;;;;29.40;18.60;;;;;;;-143.48;89.11;78375.09;5073931;28;20452;-77
2022/09/24 03:53:00;;;;;;;30.58;19.02;;;;;;;-143.48;88.88;78377.06;5073566;28;20024;-77
2022/09/24 03:55:26;;;;;;;31.58;18.73;;;;;;;-143.48;89.10;78396.91;5055526;28;20025;-77
2022/09/24 03:57:51;;;;;;;29.50;18.52;;;;;;;-143.48;89.46;78377.06;5055529;28;20028;-78
2022/09/24 04:00:17;;;;;;;30.25;18.30;;;;;;;-143.48;89.25;78383.00;5077434;28;20037;-78
2022/09/24 04:02:42;;;;;;;30.33;19.05;;;;;;;-143.48;88.83;78381.03;5059399;28;20062;-78
2022/09/24 04:05:08;;;;;;;30.85;18.58;;;;;;;-143.48;88.79;78388.97;5059409;28;20021;-78
2022/09/24 04:07:33;;;;;;;29.58;18.65;;;;;;;-143.48;88.77;78392.94;5059329;28;20021;-77
2022/09/24 04:09:59;;;;;;;29.75;18.20;;;;;;;-143.48;89.09;78406.81;5059163;28;20028;-79
2022/09/24 04:12:24;;;;;;;30.92;18.67;;;;;;;-143.48;89.65;78414.75;5077225;28;20031;-78
2022/09/24 04:14:49;;;;;;;32.08;19.23;;;;;;;-143.48;90.39;78420.69;5059162;28;20020;-78
2022/09/24 04:17:16;;;;;;;33.63;19.33;;;;;;;-143.48;91.23;78408.81;5059224;28;20060;-77
2022/09/24 04:19:42;;;;;;;29.83;18.63;;;;;;;-143.48;90.84;78398.88;5059804;28;20052;-77
2022/09/24 04:22:08;;;;;;;29.50;17.42;;;;;;;-143.48;90.47;78390.94;5076540;28;20020;-76
2022/09/24 04:24:33;;;;;;;26.88;16.65;;;;;;;-143.48;90.12;78404.84;5076790;28;20051;-77
2022/09/24 04:26:58;;;;;;;27.80;17.35;;;;;;;-143.48;90.52;78392.94;5058780;28;20024;-78
2022/09/24 04:29:24;;;;;;;28.77;17.27;;;;;;;-143.48;90.14;78408.81;5076582;28;20368;-77
2022/09/24 04:31:49;;;;;;;30.65;18.80;;;;;;;-143.48;90.48;78418.72;5058709;28;20032;-77
2022/09/24 04:34:14;;;;;;;30.92;18.20;;;;;;;-143.48;90.80;78392.94;5059093;28;20107;-76
2022/09/24 04:36:40;;;;;;;30.75;17.73;;;;;;;-143.48;90.69;78381.03;5058421;28;20103;-77
2022/09/24 04:39:05;;;;;;;28.00;17.58;;;;;;;-143.48;90.22;78386.97;5058771;28;20616;-77
2022/09/24 04:41:30;;;;;;;31.13;18.30;;;;;;;-143.48;90.43;78386.97;5058839;28;20161;-77
2022/09/24 04:43:57;;;;;;;28.77;17.35;;;;;;;-143.48;90.12;78392.94;5076013;28;20025;-77
2022/09/24 04:46:22;;;;;;;29.40;17.30;;;;;;;-143.48;90.06;78390.94;5058294;28;20034;-77
2022/09/24 04:48:48;;;;;;;27.90;17.35;;;;;;;-143.48;90.27;78377.06;5058423;28;20531;-77
2022/09/24 04:51:14;;;;;;;27.30;16.48;;;;;;;-143.48;89.78;78385.00;5076081;28;20025;-77
2022/09/24 04:53:40;;;;;;;25.40;15.93;;;;;;;-143.48;89.42;78390.94;5076223;28;20055;-78
2022/09/24 04:56:10;;;;;;;25.52;15.18;;;;;;;-143.48;89.60;78402.84;5076446;28;20082;-77
2022/09/24 04:58:36;;;;;;;24.70;14.77;;;;;;;-143.48;89.55;78406.81;5042017;28;20036;-76
2022/09/24 05:01:02;;;;;;;22.70;14.52;;;;;;;-143.48;89.89;78406.81;5063847;28;20088;-79
2022/09/24 05:03:28;;;;;;;28.10;16.25;;;;;;;-143.48;89.98;78394.91;5064848;28;20404;-76
2022/09/24 05:05:54;;;;;;;27.67;16.63;;;;;;;-143.48;90.06;78400.88;5068423;28;20020;-77
2022/09/24 05:08:19;;;;;;;28.38;16.40;;;;;;;-143.48;89.86;78412.75;5058247;28;20021;-77
2022/09/24 05:10:45;;;;;;;25.50;16.58;;;;;;;-143.48;90.12;78400.88;5040431;28;20024;-77
2022/09/24 05:13:10;;;;;;;30.25;17.23;;;;;;;-143.48;89.74;78404.84;5057996;28;20025;-77
2022/09/24 05:15:35;;;;;;;29.75;18.10;;;;;;;-143.48;89.76;78402.84;5068282;28;20040;-78
2022/09/24 05:18:01;;;;;;;32.15;17.55;;;;;;;-143.48;89.88;78398.88;5063656;28;20036;-78
2022/09/24 05:20:26;;;;;;;32.70;18.77;;;;;;;-143.48;90.01;78390.94;5061906;28;20037;-78
2022/09/24 05:22:51;;;;;;;32.10;18.63;;;;;;;-143.48;89.51;78406.81;5075853;28;20025;-77
2022/09/24 05:25:19;;;;;;;33.80;18.45;;;;;;;-143.48;89.89;78416.72;5075653;28;20025;-78
2022/09/24 05:27:54;;;;;;;32.55;19.02;;;;;;;-143.48;90.57;78396.91;5075755;28;20047;-77
2022/09/24 05:30:22;;;;;;;33.03;18.80;;;;;;;-143.48;90.21;78392.94;5075624;28;20024;-78
2022/09/24 05:32:50;;;;;;;34.95;19.55;;;;;;;-143.48;90.28;78394.91;5057723;28;20021;-78
2022/09/24 05:35:17;;;;;;;33.17;19.50;;;;;;;-143.48;90.15;78388.97;5057742;28;20047;-78
2022/09/24 05:37:43;;;;;;;31.80;19.10;;;;;;;-143.48;89.51;78402.84;5057855;28;20415;-78
2022/09/24 05:43:01;;;;;;;33.17;19.75;;;;;;;-143.48;89.65;78394.91;5075597;28;20039;-77
2022/09/24 05:45:28;;;;;;;32.65;18.48;;;;;;;-143.48;89.61;78420.69;5057351;28;20111;-78
2022/09/24 05:47:54;;;;;;;35.00;20.23;;;;;;;-143.48;89.91;78408.81;5074841;28;20060;-78
2022/09/24 05:50:20;;;;;;;33.30;19.83;;;;;;;-143.48;89.89;78408.81;5075035;28;20020;-79
2022/09/24 05:52:45;;;;;;;32.30;18.55;;;;;;;-143.48;89.68;78396.91;5057351;28;20029;-78
2022/09/24 05:55:10;;;;;;;29.90;18.42;;;;;;;-143.48;89.41;78404.84;5075217;28;20028;-76
2022/09/24 05:57:36;;;;;;;31.83;18.27;;;;;;;-143.48;89.30;78398.88;5058534;28;20032;-76
2022/09/24 06:00:04;;;;;;;28.73;17.85;;;;;;;-143.48;89.49;78408.81;5057252;28;20073;-77
2022/09/24 06:02:30;;;;;;;30.33;18.45;;;;;;;-143.48;89.97;78422.69;5074804;28;20082;-76
2022/09/24 06:04:55;;;;;;;32.10;18.95;;;;;;;-143.48;90.55;78432.59;5056612;28;20448;-77
2022/09/24 06:07:20;;;;;;;31.70;18.30;;;;;;;-143.48;90.74;78412.75;5056861;28;20372;-77
2022/09/24 06:09:46;;;;;;;32.50;18.92;;;;;;;-143.48;90.38;78414.75;5056949;28;20170;-77
2022/09/24 06:12:12;;;;;;;34.83;19.17;;;;;;;-143.48;90.42;78402.84;5056887;28;20028;-78
2022/09/24 06:14:37;;;;;;;32.65;19.15;;;;;;;-143.48;90.14;78396.91;5057300;28;20027;-77
2022/09/24 06:17:03;;;;;;;34.60;18.90;;;;;;;-143.48;89.65;78414.75;5056593;28;20119;-77
2022/09/24 06:19:28;;;;;;;33.03;19.00;;;;;;;-143.48;89.65;78426.66;5074666;28;20055;-77
2022/09/24 06:21:53;;;;;;;31.35;18.88;;;;;;;-143.48;90.35;78412.75;5057069;28;20028;-77
2022/09/24 06:24:19;;;;;;;32.38;18.70;;;;;;;-143.48;90.27;78408.81;5074911;28;20092;-77
2022/09/24 06:26:44;;;;;;;31.80;17.73;;;;;;;-143.48;89.47;78410.78;5056604;28;20031;-77
2022/09/24 06:29:10;;;;;;;36.13;18.50;;;;;;;-143.48;89.44;78412.75;5074720;28;20107;-77
2022/09/24 06:31:35;;;;;;;36.05;19.52;;;;;;;-143.48;89.95;78400.88;5057871;28;20081;-77
2022/09/24 06:34:01;;;;;;;30.58;17.45;;;;;;;-143.48;89.85;78408.81;5075923;28;20020;-77
2022/09/24 06:36:28;;;;;;;32.40;19.02;;;;;;;-143.48;89.78;78408.81;5057056;28;20448;-78
2022/09/24 06:38:53;;;;;;;32.28;18.73;;;;;;;-143.48;89.66;78414.75;5087660;28;20039;-78
2022/09/24 06:41:19;;;;;;;32.90;18.15;;;;;;;-143.48;90.03;78412.75;5074918;28;20392;-76
2022/09/24 06:43:45;;;;;;;31.48;17.50;;;;;;;-143.48;89.53;78408.81;5077984;28;20078;-78
2022/09/24 06:46:11;;;;;;;30.60;17.88;;;;;;;-143.48;89.27;78410.78;5094999;28;20028;-77
2022/09/24 06:48:38;;;;;;;29.60;17.33;;;;;;;-143.48;89.08;78426.66;5056097;28;20079;-77
2022/09/24 06:51:04;;;;;;;29.15;16.77;;;;;;;-143.48;89.62;78410.78;5074409;28;20020;-77
2022/09/24 06:53:30;;;;;;;29.85;17.35;;;;;;;-143.48;89.46;78408.81;5056463;28;20020;-77
2022/09/24 06:55:58;;;;;;;29.80;16.92;;;;;;;-143.48;88.96;78430.63;5056009;28;20023;-77
2022/09/24 06:58:24;;;;;;;28.15;16.92;;;;;;;-143.48;89.59;78400.88;5058076;28;20025;-78
2022/09/24 07:00:52;;;;;;;26.27;16.23;;;;;;;-143.48;89.13;78406.81;5057828;28;20070;-78
2022/09/24 07:03:18;;;;;;;27.80;16.42;;;;;;;-143.48;88.83;78402.84;5075616;28;20028;-78
2022/09/24 07:05:44;;;;;;;28.25;16.30;;;;;;;-143.48;88.19;78420.69;5074274;28;20029;-77
2022/09/24 07:08:09;;;;;;;26.73;16.65;;;;;;;-143.48;88.47;78418.72;5056876;28;20028;-77
2022/09/24 07:10:36;;;;;;;26.48;16.42;;;;;;;-143.48;88.71;78416.72;5056326;28;20089;-78
2022/09/24 07:13:02;;;;;;;26.63;15.75;;;;;;;-143.48;88.14;78414.75;5056066;28;20028;-78
2022/09/24 07:15:27;;;;;;;26.25;16.58;;;;;;;-143.48;88.23;78436.56;5039692;28;20032;-78
2022/09/24 07:17:56;;;;;;;27.52;16.27;;;;;;;-143.48;89.03;78420.69;5074485;28;20024;-76
2022/09/24 07:20:22;;;;;;;26.77;16.20;;;;;;;-143.48;88.81;78416.72;5056597;28;20028;-77
2022/09/24 07:22:47;;;;;;;24.17;15.02;;;;;;;-143.48;88.87;78416.72;5056560;28;20115;-77
2022/09/24 07:25:13;;;;;;;28.98;16.52;;;;;;;-143.48;88.87;78410.78;5056297;28;20024;-78
2022/09/24 07:27:38;;;;;;;24.10;14.32;;;;;;;-143.48;88.97;78420.69;5074590;28;20082;-78
2022/09/24 07:30:07;;;;;;;24.55;15.05;;;;;;;-143.48;89.26;78410.78;5039679;28;20032;-78
2022/09/24 07:32:32;;;;;;;22.92;14.18;;;;;;;-143.48;89.41;78404.84;5055859;28;20021;-78
2022/09/24 07:34:57;;;;;;;23.58;13.57;;;;;;;-143.48;89.14;78400.88;5076865;28;20020;-76
2022/09/24 07:37:23;;;;;;;25.00;14.60;;;;;;;-143.48;89.03;78408.81;5059367;28;20166;-78
2022/09/24 07:39:48;;;;;;;25.63;15.02;;;;;;;-143.48;89.05;78402.84;5060364;28;20062;-76
2022/09/24 07:42:14;;;;;;;23.25;15.05;;;;;;;-143.48;88.65;78404.84;5060763;28;20523;-78
2022/09/24 07:44:39;;;;;;;24.88;14.85;;;;;;;-143.48;88.18;78412.75;5061825;28;20029;-76
2022/09/24 07:47:05;;;;;;;24.00;14.48;;;;;;;-143.48;88.72;78402.84;5079288;28;20097;-77
2022/09/24 07:49:31;;;;;;;23.25;14.70;;;;;;;-143.48;88.21;78392.94;5078836;28;20044;-77
2022/09/24 07:52:00;;;;;;;23.95;14.52;;;;;;;-143.48;88.10;78388.97;5060289;28;20070;-77
2022/09/24 07:54:25;;;;;;;22.05;13.50;;;;;;;-143.48;87.88;78373.09;5060168;28;20021;-76
2022/09/24 07:56:51;;;;;;;25.17;15.57;;;;;;;-143.48;87.52;78361.19;5060112;28;20036;-77
2022/09/24 07:59:18;;;;;;;44.35;32.60;;;;;;;-143.48;87.21;78363.19;5079106;28;20025;-77
2022/09/24 08:01:43;;;;;;;22.42;13.52;;;;;;;-143.48;86.66;78337.41;5060745;28;20086;-77
2022/09/24 08:04:09;;;;;;;20.30;13.18;;;;;;;-143.48;86.14;78333.44;5078736;28;20444;-77
2022/09/24 08:06:35;;;;;;;20.33;12.07;;;;;;;-143.48;85.49;78349.31;5077304;28;20433;-78
2022/09/24 08:09:01;;;;;;;23.30;14.20;;;;;;;-143.48;86.18;78335.41;5061643;28;20021;-77
2022/09/24 08:11:28;;;;;;;20.88;12.95;;;;;;;-143.48;85.95;78337.41;5078788;28;20372;-77
2022/09/24 08:13:54;;;;;;;19.48;12.10;;;;;;;-143.48;85.97;78337.41;5077758;28;20044;-75
2022/09/24 08:16:20;;;;;;;19.60;12.55;;;;;;;-143.48;85.62;78351.28;5059228;28;20416;-75
2022/09/24 08:18:46;;;;;;;22.83;13.77;;;;;;;-143.48;85.95;78345.34;5058415;28;20059;-75
2022/09/24 08:21:12;;;;;;;20.55;13.30;;;;;;;-143.48;86.22;78337.41;5058648;28;20028;-75
2022/09/24 08:23:41;;;;;;;18.55;10.85;;;;;;;-143.48;85.81;78341.38;5079726;28;20031;-74
2022/09/24 08:26:09;;;;;;;21.10;14.43;;;;;;;-143.48;86.31;78333.44;5059490;28;20440;-76
2022/09/24 08:28:34;;;;;;;16.58;9.48;;;;;;;-143.48;85.49;78365.16;5058549;28;20021;-75
2022/09/24 08:31:02;;;;;;;13.75;8.02;;;;;;;-143.48;86.14;78369.13;5058848;28;20543;-77
2022/09/24 08:33:31;;;;;;;12.45;7.55;;;;;;;-143.48;86.53;78359.22;5077498;28;20077;-76
2022/09/24 08:35:58;;;;;;;12.98;7.43;;;;;;;-143.48;86.72;78341.38;5058589;28;20028;-77
2022/09/24 08:38:23;;;;;;;10.32;6.57;;;;;;;-143.48;86.64;78363.19;5058822;28;20066;-75
2022/09/24 08:40:55;;;;;;;10.63;5.30;;;;;;;-143.48;86.23;78365.16;5058531;28;20163;-77
2022/09/24 08:43:36;;;;;;;7.38;4.45;;;;;;;-143.48;86.49;78383.00;5058528;28;20032;-76
2022/09/24 08:48:54;;;;;;;9.13;3.65;;;;;;;-143.48;86.87;78383.00;5076528;28;20048;-77
2022/09/24 08:51:21;;;;;;;6.88;3.65;;;;;;;-143.48;87.02;78398.88;5076354;28;20021;-77
2022/09/24 08:53:49;;;;;;;6.55;3.28;;;;;;;-143.48;87.44;78392.94;5058305;28;20067;-77
2022/09/24 08:56:25;;;;;;;8.88;3.00;;;;;;;-143.48;87.03;78424.66;5076983;28;20055;-78
2022/09/24 08:58:58;;;;;;;15.65;3.30;;;;;;;-143.48;87.99;78416.72;5058794;28;20025;-77
2022/09/24 09:01:59;;;;;;;11.15;3.35;;;;;;;-143.48;87.22;78436.56;5058029;28;20020;-77
2022/09/24 09:04:40;;;;;;;7.85;3.00;;;;;;;-143.48;87.69;78416.72;5041630;28;20036;-77
2022/09/24 09:07:22;;;;;;;9.10;2.67;;;;;;;-143.48;87.49;78416.72;5058467;28;20024;-78
2022/09/24 09:10:02;;;;;;;6.03;2.42;;;;;;;-143.48;87.62;78418.72;5076851;28;20044;-76
2022/09/24 09:12:34;;;;;;;8.10;2.63;;;;;;;-143.48;86.83;78418.72;5077041;28;20055;-77
2022/09/24 09:15:10;;;;;;;9.63;2.47;;;;;;;-143.48;86.97;78412.75;5076794;28;20067;-78
2022/09/24 09:17:55;;;;;;;9.88;2.33;;;;;;;-143.48;86.65;78398.88;5059497;28;20029;-77
2022/09/24 09:20:50;;;;;;;18.65;2.30;;;;;;;-143.48;86.90;78412.75;5058731;28;20028;-78
2022/09/24 09:23:34;;;;;;;10.90;2.38;;;;;;;-143.48;86.35;78412.75;5071948;28;20041;-78
2022/09/24 09:26:00;;;;;;;6.20;1.90;;;;;;;-143.48;86.01;78418.72;5058157;28;20047;-79
2022/09/24 09:28:27;;;;;;;8.60;2.00;;;;;;;-143.48;86.60;78420.69;5076255;28;20059;-78
2022/09/24 09:30:55;;;;;;;14.52;2.88;;;;;;;-143.48;86.76;78408.81;5076391;28;20028;-78
2022/09/24 09:33:24;;;;;;;15.75;5.20;;;;;;;-143.48;86.30;78396.91;5058815;28;20028;-79
2022/09/24 09:36:26;;;;;;;13.98;3.55;;;;;;;-143.48;86.05;78400.88;5058447;28;20051;-77
2022/09/24 09:39:20;;;;;;;33.70;10.77;;;;;;;-143.48;85.79;78396.91;5058225;28;20035;-79
2022/09/24 09:41:55;;;;;;;31.35;9.85;;;;;;;-143.48;86.25;78404.84;5058275;28;20127;-80
2022/09/24 09:44:29;;;;;;;30.02;8.57;;;;;;;-143.48;86.39;78448.47;5078088;28;20056;-85
2022/09/24 09:47:34;;;;;;;19.65;5.28;;;;;;;-143.48;87.38;78442.50;5056708;28;20053;-78
2022/09/24 09:50:05;;;;;;;46.08;12.48;;;;;;;-143.48;86.49;78428.63;5057407;28;20112;-84
2022/09/24 09:52:35;;;;;;;55.20;12.05;;;;;;;-143.48;86.63;78450.44;5057375;28;20436;-82
2022/09/24 09:55:04;;;;;;;28.40;6.88;;;;;;;-143.48;87.09;78428.63;5057560;28;20066;-81
2022/09/24 09:57:30;;;;;;;12.43;3.15;;;;;;;-143.48;86.56;78444.50;5056111;28;20364;-81
2022/09/24 09:59:56;;;;;;;12.15;3.15;;;;;;;-143.48;86.49;78444.50;5057296;28;20043;-82
2022/09/24 10:02:29;;;;;;;9.73;3.17;;;;;;;-143.48;86.58;78442.50;5039780;28;20377;-79
2022/09/24 10:04:58;;;;;;;10.48;3.75;;;;;;;-143.48;87.23;78442.50;5056615;28;20044;-79
2022/09/24 10:07:23;;;;;;;13.05;3.22;;;;;;;-143.48;86.82;78426.66;5057094;28;20025;-81
2022/09/24 10:10:14;;;;;;;10.93;3.00;;;;;;;-143.48;86.42;78438.53;5056653;28;20035;-81
2022/09/24 10:12:40;;;;;;;12.90;3.58;;;;;;;-143.48;86.30;78440.53;5048856;28;20473;-81
2022/09/24 10:15:14;;;;;;;11.88;3.00;;;;;;;-143.48;86.32;78428.63;5056263;28;20032;-79
2022/09/24 10:17:41;;;;;;;7.57;2.40;;;;;;;-143.48;86.04;78420.69;5057057;28;20029;-81
2022/09/24 10:20:13;;;;;;;12.63;2.42;;;;;;;-143.48;86.08;78432.59;5058153;28;20013;-81
2022/09/24 10:22:44;;;;;;;13.13;2.60;;;;;;;-143.48;86.26;78416.72;5056562;28;20024;-79
2022/09/24 10:25:25;;;;;;;10.35;2.80;;;;;;;-143.48;85.86;78406.81;5055631;28;20021;-78
2022/09/24 10:27:53;;;;;;;7.15;2.35;;;;;;;-143.48;85.38;78396.91;5055715;28;20021;-78
2022/09/24 10:30:34;;;;;;;12.23;3.22;;;;;;;-143.48;85.14;78402.84;5054165;28;20090;-76
2022/09/24 10:33:03;;;;;;;7.18;2.40;;;;;;;-143.48;85.20;78386.97;5055967;28;20372;-78
2022/09/24 10:35:34;;;;;;;12.88;2.58;;;;;;;-143.48;85.20;78375.09;5057596;28;20452;-80
2022/09/24 10:38:02;;;;;;;10.98;2.60;;;;;;;-143.48;84.89;78385.00;5056409;28;20425;-81
2022/09/24 10:40:37;;;;;;;8.20;2.40;;;;;;;-143.48;84.75;78355.25;5056660;28;20079;-81
2022/09/24 10:43:05;;;;;;;9.30;2.15;;;;;;;-143.48;84.39;78345.34;5054906;28;20028;-77
2022/09/24 10:45:56;;;;;;;7.43;2.20;;;;;;;-143.48;83.67;78351.28;5054378;28;20029;-77
2022/09/24 10:48:33;;;;;;;9.85;2.38;;;;;;;-143.48;83.94;78349.31;5072047;28;20052;-77
2022/09/24 10:51:10;;;;;;;9.65;2.28;;;;;;;-143.48;83.00;78367.16;5057304;28;20111;-79
2022/09/24 10:53:41;;;;;;;11.88;2.10;;;;;;;-143.48;83.51;78355.25;5078486;28;20063;-80
2022/09/24 10:56:37;;;;;;;9.52;2.17;;;;;;;-143.48;82.99;78357.22;5076000;28;20078;-80
2022/09/24 10:59:07;;;;;;;10.80;2.20;;;;;;;-143.48;83.61;78357.22;5069848;28;20032;-80
2022/09/24 11:01:57;;;;;;;13.77;2.35;;;;;;;-143.48;82.90;78347.31;5058365;28;20056;-81
2022/09/24 11:04:48;;;;;;;12.70;2.13;;;;;;;-143.48;82.97;78343.34;5058462;28;20025;-80
2022/09/24 11:07:47;;;;;;;8.98;2.00;;;;;;;-143.48;83.64;78339.38;5076447;28;20078;-78
2022/09/24 11:10:51;;;;;;;11.98;2.40;;;;;;;-143.48;82.99;78365.16;5061870;28;20024;-79
2022/09/24 11:13:48;;;;;;;8.43;2.33;;;;;;;-143.48;83.71;78371.13;5080408;28;20020;-78
2022/09/24 11:16:22;;;;;;;9.00;1.95;;;;;;;-143.48;83.80;78365.16;5061654;28;20549;-78
2022/09/24 11:19:16;;;;;;;11.73;2.08;;;;;;;-143.48;82.70;78349.31;5062565;28;20031;-81
2022/09/24 11:21:52;;;;;;;11.73;2.20;;;;;;;-143.48;81.80;78363.19;5061869;28;20089;-78
2022/09/24 11:24:42;;;;;;;9.57;2.13;;;;;;;-143.48;81.71;78375.09;5061646;28;20031;-79
2022/09/24 11:27:19;;;;;;;10.05;2.22;;;;;;;-143.48;82.13;78383.00;5062267;28;20032;-79